Time;durP1;ratioP1;P1;durP2;ratioP2;P2;SDS_P1;SDS_P2;PMS_P1;PMS_P2;Temp;Humidity;BMP_temperature;BMP_pressure;BME280_temperature;BME280_humidity;BME280_pressure;Samples;Min_cycle;Max_cycle;Signal;HPM_P1;HPM_P2
2021/04/10 00:01:19;;;;;;;2.70;2.40;;;10.90;99.90;;;;;;467153;253;28125;-74
2021/04/10 00:03:20;;;;;;;3.17;2.37;;;10.90;99.90;;;;;;467185;253;28183;-74
2021/04/10 00:05:21;;;;;;;4.47;2.50;;;10.90;99.90;;;;;;467173;254;28478;-74
2021/04/10 00:07:22;;;;;;;2.23;2.03;;;11.00;99.90;;;;;;467169;253;28179;-74
2021/04/10 00:09:24;;;;;;;4.13;2.10;;;11.00;99.90;;;;;;467190;253;28218;-75
2021/04/10 00:11:25;;;;;;;2.97;2.47;;;11.00;99.90;;;;;;467271;253;28005;-74
2021/04/10 00:13:26;;;;;;;5.37;2.03;;;11.00;99.90;;;;;;467315;253;28642;-74
2021/04/10 00:15:30;;;;;;;3.63;2.13;;;11.00;99.90;;;;;;467298;253;28774;-74
2021/04/10 00:17:31;;;;;;;4.43;1.90;;;11.10;99.90;;;;;;468270;245;28173;-74
2021/04/10 00:19:34;;;;;;;9.83;2.20;;;11.10;99.90;;;;;;473526;250;28005;-74
2021/04/10 00:21:34;;;;;;;4.40;2.13;;;11.10;99.90;;;;;;475077;250;28178;-74
2021/04/10 00:23:42;;;;;;;6.40;2.50;;;11.20;99.90;;;;;;474900;245;28155;-74
2021/04/10 00:25:36;;;;;;;7.67;2.40;;;11.20;99.90;;;;;;475179;250;28050;-74
2021/04/10 00:27:38;;;;;;;4.30;1.90;;;11.20;99.90;;;;;;471377;250;28226;-74
2021/04/10 00:29:39;;;;;;;4.57;2.30;;;11.20;99.90;;;;;;467251;253;28794;-74
2021/04/10 00:31:40;;;;;;;4.70;2.17;;;11.20;99.90;;;;;;467248;250;28711;-74
2021/04/10 00:33:41;;;;;;;4.90;2.37;;;11.20;99.90;;;;;;467132;253;28665;-74
2021/04/10 00:35:43;;;;;;;2.93;2.30;;;11.10;99.90;;;;;;467175;253;28270;-75
2021/04/10 00:37:44;;;;;;;4.43;2.00;;;11.10;99.90;;;;;;467190;250;28071;-74
2021/04/10 00:39:45;;;;;;;3.80;2.23;;;11.10;99.90;;;;;;467170;253;28074;-74
2021/04/10 00:41:46;;;;;;;2.67;2.47;;;11.00;99.90;;;;;;467160;253;28148;-74
2021/04/10 00:43:48;;;;;;;3.20;2.10;;;11.10;99.90;;;;;;467127;253;28267;-74
2021/04/10 00:45:49;;;;;;;4.20;2.60;;;11.10;99.90;;;;;;467192;251;28600;-74
2021/04/10 00:47:50;;;;;;;5.53;2.37;;;11.00;99.90;;;;;;467129;253;27996;-74
2021/04/10 00:49:51;;;;;;;5.47;2.60;;;11.00;99.90;;;;;;467149;254;28228;-74
2021/04/10 00:51:53;;;;;;;5.17;2.33;;;11.10;99.90;;;;;;467155;253;28530;-74
2021/04/10 00:53:54;;;;;;;3.37;2.43;;;11.10;99.90;;;;;;467167;253;28747;-74
2021/04/10 00:55:55;;;;;;;3.77;2.00;;;11.10;99.90;;;;;;467174;249;28743;-74
2021/04/10 00:57:56;;;;;;;6.10;2.27;;;11.10;99.90;;;;;;467163;249;28054;-75
2021/04/10 00:59:58;;;;;;;2.97;1.93;;;11.10;99.90;;;;;;467168;253;28171;-75
2021/04/10 01:01:59;;;;;;;3.57;2.40;;;11.10;99.90;;;;;;467146;253;28154;-74
2021/04/10 01:04:00;;;;;;;5.73;2.53;;;11.20;99.90;;;;;;467144;253;28219;-74
2021/04/10 01:06:01;;;;;;;6.53;2.30;;;11.10;99.90;;;;;;467153;253;28123;-72
2021/04/10 01:08:03;;;;;;;3.43;2.20;;;11.20;99.90;;;;;;467140;253;28027;-75
2021/04/10 01:10:04;;;;;;;3.73;2.50;;;11.20;99.90;;;;;;467145;253;28153;-75
2021/04/10 01:12:05;;;;;;;4.70;2.40;;;11.20;99.90;;;;;;467154;253;27895;-74
2021/04/10 01:14:06;;;;;;;4.50;2.10;;;11.20;99.90;;;;;;467128;253;28027;-74
2021/04/10 01:16:08;;;;;;;5.00;2.40;;;11.10;99.90;;;;;;467175;253;28456;-73
2021/04/10 01:18:09;;;;;;;3.90;2.20;;;11.10;99.90;;;;;;467167;253;28722;-74
2021/04/10 01:20:10;;;;;;;3.00;2.30;;;11.10;99.90;;;;;;463297;254;28438;-74
2021/04/10 01:22:11;;;;;;;2.97;2.47;;;11.10;99.90;;;;;;462553;255;28324;-73
2021/04/10 01:24:13;;;;;;;6.00;2.80;;;11.10;99.90;;;;;;462552;251;28065;-75
2021/04/10 01:26:14;;;;;;;5.47;2.07;;;11.10;99.90;;;;;;462607;257;28057;-74
2021/04/10 01:28:15;;;;;;;6.20;2.60;;;11.10;99.90;;;;;;462650;255;28164;-75
2021/04/10 01:30:16;;;;;;;3.67;2.37;;;11.10;99.90;;;;;;462576;257;28162;-74
2021/04/10 01:32:18;;;;;;;6.13;2.20;;;11.10;99.90;;;;;;462547;257;28077;-74
2021/04/10 01:34:19;;;;;;;3.00;2.00;;;11.10;99.90;;;;;;462525;257;28052;-75
2021/04/10 01:36:20;;;;;;;3.63;2.00;;;11.10;99.90;;;;;;462524;257;28065;-73
2021/04/10 01:38:22;;;;;;;6.10;2.20;;;11.10;99.90;;;;;;462507;257;28087;-75
2021/04/10 01:40:23;;;;;;;6.93;2.43;;;11.10;99.90;;;;;;462557;257;29791;-74
2021/04/10 01:42:24;;;;;;;5.00;2.33;;;11.00;99.90;;;;;;462544;255;28702;-74
2021/04/10 01:44:25;;;;;;;3.50;2.20;;;11.00;99.90;;;;;;462519;255;28413;-74
2021/04/10 01:46:27;;;;;;;9.93;2.60;;;11.00;99.90;;;;;;462503;252;28421;-75
2021/04/10 01:48:28;;;;;;;4.40;3.10;;;11.00;99.90;;;;;;462545;251;28159;-75
2021/04/10 01:50:29;;;;;;;7.47;2.40;;;11.00;99.90;;;;;;462513;257;28038;-74
2021/04/10 01:52:30;;;;;;;6.10;2.60;;;11.00;99.90;;;;;;462536;255;28298;-74
2021/04/10 01:54:32;;;;;;;6.53;2.73;;;11.00;99.90;;;;;;462548;255;28174;-74
2021/04/10 01:56:33;;;;;;;3.13;2.43;;;11.00;99.90;;;;;;462508;257;28075;-73
2021/04/10 01:58:34;;;;;;;5.03;2.40;;;11.00;99.90;;;;;;462525;257;28533;-74
2021/04/10 02:00:35;;;;;;;7.13;2.27;;;11.00;99.90;;;;;;462519;255;28160;-74
2021/04/10 02:02:37;;;;;;;4.87;2.50;;;11.00;99.90;;;;;;462527;255;28166;-74
2021/04/10 02:04:38;;;;;;;3.00;2.20;;;11.00;99.90;;;;;;462515;252;27935;-74
2021/04/10 02:06:39;;;;;;;7.03;2.90;;;11.00;99.90;;;;;;462520;255;29236;-74
2021/04/10 02:08:40;;;;;;;6.90;2.80;;;11.00;99.90;;;;;;462509;257;28741;-75
2021/04/10 02:10:42;;;;;;;3.47;2.37;;;10.90;99.90;;;;;;462523;255;28605;-74
2021/04/10 02:12:43;;;;;;;3.47;2.20;;;10.90;99.90;;;;;;462531;255;28088;-74
2021/04/10 02:14:44;;;;;;;5.50;2.37;;;10.90;99.90;;;;;;462515;257;28382;-74
2021/04/10 02:16:45;;;;;;;2.90;2.43;;;10.90;99.90;;;;;;462516;255;28056;-74
2021/04/10 02:18:47;;;;;;;6.73;3.07;;;10.90;99.90;;;;;;462549;257;27977;-74
2021/04/10 02:20:48;;;;;;;3.53;2.60;;;10.90;99.90;;;;;;462519;255;28165;-74
2021/04/10 02:22:54;;;;;;;3.57;2.50;;;10.90;99.90;;;;;;462532;255;27972;-74
2021/04/10 02:24:53;;;;;;;5.63;2.70;;;10.90;99.90;;;;;;462414;257;28372;-74
2021/04/10 02:26:54;;;;;;;7.80;2.70;;;10.90;99.90;;;;;;462525;251;28168;-74
2021/04/10 02:28:55;;;;;;;5.37;2.60;;;10.90;99.90;;;;;;462570;253;27956;-75
2021/04/10 02:31:00;;;;;;;7.87;2.60;;;10.90;99.90;;;;;;462590;255;28236;-74
2021/04/10 02:33:01;;;;;;;4.60;2.60;;;10.80;99.90;;;;;;462671;257;28210;-74
2021/04/10 02:35:02;;;;;;;9.70;3.03;;;10.80;99.90;;;;;;462686;257;28070;-74
2021/04/10 02:37:03;;;;;;;5.17;2.50;;;10.70;99.90;;;;;;462724;257;27992;-73
2021/04/10 02:39:05;;;;;;;4.87;2.90;;;10.70;99.90;;;;;;462703;257;27919;-74
2021/04/10 02:41:06;;;;;;;4.73;2.90;;;10.60;99.90;;;;;;462735;255;28499;-74
2021/04/10 02:43:07;;;;;;;5.80;2.47;;;10.60;99.90;;;;;;462705;257;28355;-74
2021/04/10 02:45:08;;;;;;;4.10;2.93;;;10.50;99.90;;;;;;462688;257;28410;-74
2021/04/10 02:47:10;;;;;;;3.20;2.60;;;10.50;99.90;;;;;;462622;257;27812;-74
2021/04/10 02:49:11;;;;;;;7.33;2.63;;;10.40;99.90;;;;;;462539;255;27997;-74
2021/04/10 02:51:12;;;;;;;4.00;2.67;;;10.40;99.90;;;;;;462595;255;27916;-74
2021/04/10 02:53:13;;;;;;;6.10;3.03;;;10.30;99.90;;;;;;462554;257;28033;-74
2021/04/10 02:55:15;;;;;;;6.17;3.17;;;10.20;99.90;;;;;;462525;255;28146;-74
2021/04/10 02:57:16;;;;;;;5.27;2.93;;;10.20;99.90;;;;;;462495;257;27944;-74
2021/04/10 02:59:17;;;;;;;3.97;2.80;;;10.20;99.90;;;;;;462544;251;28061;-74
2021/04/10 03:01:19;;;;;;;4.87;2.97;;;10.20;99.90;;;;;;462574;257;27961;-75
2021/04/10 03:03:20;;;;;;;5.50;2.50;;;10.20;99.90;;;;;;462527;257;27908;-74
2021/04/10 03:05:21;;;;;;;6.03;2.70;;;10.20;99.90;;;;;;462532;255;28489;-74
2021/04/10 03:07:22;;;;;;;2.70;2.43;;;10.20;99.90;;;;;;462533;255;28785;-75
2021/04/10 03:09:23;;;;;;;6.90;3.00;;;10.20;99.90;;;;;;462525;257;28431;-74
2021/04/10 03:11:25;;;;;;;5.27;3.10;;;10.20;99.90;;;;;;462566;253;27825;-75
2021/04/10 03:13:26;;;;;;;4.20;2.60;;;10.20;99.90;;;;;;462525;257;27918;-74
2021/04/10 03:15:27;;;;;;;4.73;2.93;;;10.20;99.90;;;;;;462514;257;27969;-74
2021/04/10 03:17:28;;;;;;;5.03;3.00;;;10.10;99.90;;;;;;462542;255;27965;-74
2021/04/10 03:19:30;;;;;;;6.10;2.93;;;10.10;99.90;;;;;;462504;257;27934;-75
2021/04/10 03:21:31;;;;;;;6.70;3.33;;;10.20;99.90;;;;;;462526;257;28030;-75
2021/04/10 03:23:32;;;;;;;3.27;2.27;;;10.10;99.90;;;;;;462540;255;27994;-75
2021/04/10 03:25:33;;;;;;;5.03;2.97;;;10.10;99.90;;;;;;462523;252;28116;-75
2021/04/10 03:27:35;;;;;;;8.17;2.90;;;10.10;99.90;;;;;;462505;257;27817;-75
2021/04/10 03:29:36;;;;;;;6.57;2.50;;;10.00;99.90;;;;;;462501;255;28555;-74
2021/04/10 03:31:37;;;;;;;2.80;2.57;;;10.00;99.90;;;;;;462516;255;28532;-74
2021/04/10 03:33:38;;;;;;;9.87;3.37;;;10.00;99.90;;;;;;462492;255;28627;-75
2021/04/10 03:35:40;;;;;;;5.37;2.67;;;10.00;99.90;;;;;;462500;255;28380;-75
2021/04/10 03:37:41;;;;;;;7.20;2.57;;;10.00;99.90;;;;;;462471;257;27946;-74
2021/04/10 03:39:42;;;;;;;6.73;2.57;;;10.00;99.90;;;;;;462493;255;27968;-74
2021/04/10 03:41:43;;;;;;;5.70;2.50;;;9.90;99.90;;;;;;462464;257;27880;-74
2021/04/10 03:43:45;;;;;;;7.80;2.43;;;9.90;99.90;;;;;;462528;257;27951;-74
2021/04/10 03:45:46;;;;;;;5.10;2.40;;;9.90;99.90;;;;;;462538;255;28045;-74
2021/04/10 03:47:47;;;;;;;6.57;2.50;;;9.90;99.90;;;;;;462554;257;27958;-74
2021/04/10 03:49:48;;;;;;;3.53;2.10;;;9.90;99.90;;;;;;462662;255;27926;-75
2021/04/10 03:51:50;;;;;;;2.57;2.37;;;9.90;99.90;;;;;;462653;257;27945;-74
2021/04/10 03:53:51;;;;;;;2.53;2.17;;;9.80;99.90;;;;;;462662;255;28030;-74
2021/04/10 03:55:52;;;;;;;5.30;2.50;;;9.80;99.90;;;;;;462635;257;27601;-74
2021/04/10 03:57:53;;;;;;;3.80;2.73;;;9.80;99.90;;;;;;462635;257;27833;-74
2021/04/10 03:59:55;;;;;;;3.50;2.03;;;9.80;99.90;;;;;;462648;255;28396;-75
2021/04/10 04:01:56;;;;;;;3.40;2.10;;;9.70;99.90;;;;;;462561;257;28353;-74
2021/04/10 04:03:57;;;;;;;6.43;2.90;;;9.70;99.90;;;;;;462566;255;28405;-74
2021/04/10 04:05:58;;;;;;;3.80;2.43;;;9.70;99.90;;;;;;462548;255;30222;-74
2021/04/10 04:08:00;;;;;;;3.80;2.40;;;9.70;99.90;;;;;;462528;257;28415;-74
2021/04/10 04:10:01;;;;;;;3.80;2.13;;;9.70;99.90;;;;;;462553;255;27892;-74
2021/04/10 04:12:02;;;;;;;3.70;2.00;;;9.70;99.90;;;;;;462553;257;27912;-74
2021/04/10 04:14:03;;;;;;;3.70;2.60;;;9.70;99.90;;;;;;462559;255;27820;-74
2021/04/10 04:16:05;;;;;;;2.60;2.10;;;9.70;99.90;;;;;;462532;257;27702;-75
2021/04/10 04:18:06;;;;;;;3.57;2.57;;;9.60;99.90;;;;;;462528;255;27804;-74
2021/04/10 04:20:07;;;;;;;3.97;2.53;;;9.60;99.90;;;;;;462552;255;27925;-73
2021/04/10 04:22:08;;;;;;;4.67;2.40;;;9.60;99.90;;;;;;462539;253;27828;-74
2021/04/10 04:24:10;;;;;;;3.23;2.20;;;9.60;99.90;;;;;;462537;257;28485;-74
2021/04/10 04:26:11;;;;;;;2.67;2.30;;;9.60;99.90;;;;;;462507;257;28057;-74
2021/04/10 04:28:12;;;;;;;1.80;1.70;;;9.50;99.90;;;;;;462513;255;28024;-74
2021/04/10 04:30:13;;;;;;;4.40;2.17;;;9.50;99.90;;;;;;462486;257;27960;-74
2021/04/10 04:32:15;;;;;;;3.73;2.10;;;9.50;99.90;;;;;;462514;257;27567;-74
2021/04/10 04:34:16;;;;;;;3.80;2.27;;;9.50;99.90;;;;;;462530;257;27958;-74
2021/04/10 04:36:17;;;;;;;6.53;2.20;;;9.50;99.90;;;;;;462526;255;27948;-74
2021/04/10 04:38:18;;;;;;;6.50;2.70;;;9.50;99.90;;;;;;462551;255;28246;-74
2021/04/10 04:40:20;;;;;;;5.67;2.70;;;9.50;99.90;;;;;;462479;252;28493;-74
2021/04/10 04:42:21;;;;;;;3.30;2.10;;;9.40;99.90;;;;;;462563;255;28470;-74
2021/04/10 04:44:22;;;;;;;4.03;2.50;;;9.40;99.90;;;;;;462520;257;28626;-74
2021/04/10 04:46:23;;;;;;;3.70;2.43;;;9.30;99.90;;;;;;462520;257;28610;-74
2021/04/10 04:48:25;;;;;;;3.00;2.40;;;9.30;99.90;;;;;;462501;255;28163;-74
2021/04/10 04:50:26;;;;;;;4.60;2.50;;;9.20;99.90;;;;;;462514;257;28011;-74
2021/04/10 04:52:27;;;;;;;5.00;2.37;;;9.30;99.90;;;;;;462554;257;27962;-75
2021/04/10 04:54:28;;;;;;;2.77;2.30;;;9.30;99.90;;;;;;462538;257;27523;-73
2021/04/10 04:56:30;;;;;;;2.90;2.37;;;9.30;99.90;;;;;;462509;257;28017;-73
2021/04/10 04:58:31;;;;;;;2.20;2.00;;;9.30;99.90;;;;;;462495;257;27942;-74
2021/04/10 05:00:32;;;;;;;4.50;2.60;;;9.20;99.90;;;;;;462538;257;27943;-74
2021/04/10 05:02:33;;;;;;;5.23;2.43;;;9.20;99.90;;;;;;462555;255;28085;-74
2021/04/10 05:04:35;;;;;;;4.27;2.60;;;9.20;99.90;;;;;;462535;257;28002;-74
2021/04/10 05:06:36;;;;;;;5.23;2.20;;;9.10;99.90;;;;;;462624;255;28066;-74
2021/04/10 05:08:37;;;;;;;4.43;2.40;;;9.00;99.90;;;;;;462663;257;27931;-74
2021/04/10 05:10:38;;;;;;;4.37;2.63;;;9.00;99.90;;;;;;462613;257;27945;-73
2021/04/10 05:12:40;;;;;;;4.50;2.57;;;9.10;99.90;;;;;;462542;255;27959;-73
2021/04/10 05:14:41;;;;;;;3.83;2.50;;;9.10;99.90;;;;;;462529;257;28495;-73
2021/04/10 05:16:42;;;;;;;6.20;2.13;;;9.10;99.90;;;;;;462498;255;28136;-74
2021/04/10 05:18:43;;;;;;;4.30;2.33;;;9.10;99.90;;;;;;462406;257;28179;-74
2021/04/10 05:20:45;;;;;;;2.60;2.30;;;9.00;99.90;;;;;;462304;257;28387;-73
2021/04/10 05:22:46;;;;;;;6.37;2.53;;;8.90;99.90;;;;;;462390;257;28610;-74
2021/04/10 05:26:49;;;;;;;3.70;2.27;;;8.90;99.90;;;;;;485700;240;28241;-73
2021/04/10 05:28:50;;;;;;;3.53;2.23;;;8.90;99.90;;;;;;483017;246;28703;-74
2021/04/10 05:30:51;;;;;;;2.00;1.87;;;9.00;99.90;;;;;;485985;241;28466;-74
2021/04/10 05:32:53;;;;;;;2.80;2.20;;;8.90;99.90;;;;;;486434;243;28432;-73
2021/04/10 05:34:54;;;;;;;2.90;2.17;;;9.00;99.90;;;;;;485696;240;28294;-74
2021/04/10 05:36:55;;;;;;;3.37;2.07;;;9.00;99.90;;;;;;477270;249;27992;-74
2021/04/10 05:38:56;;;;;;;3.70;2.30;;;9.00;99.90;;;;;;477289;249;27942;-73
2021/04/10 05:40:58;;;;;;;3.27;2.20;;;9.00;99.90;;;;;;477412;249;27904;-74
2021/04/10 05:42:59;;;;;;;6.63;2.20;;;8.90;99.90;;;;;;477440;249;27779;-74
2021/04/10 05:45:00;;;;;;;3.33;2.23;;;8.90;99.90;;;;;;477497;249;28004;-74
2021/04/10 05:47:01;;;;;;;2.77;1.90;;;8.90;99.90;;;;;;477525;249;27948;-74
2021/04/10 05:49:03;;;;;;;5.10;1.90;;;8.90;99.90;;;;;;477547;249;27684;-74
2021/04/10 05:51:04;;;;;;;2.43;2.07;;;8.80;99.90;;;;;;477573;249;28058;-73
2021/04/10 05:53:05;;;;;;;2.33;2.13;;;8.80;99.90;;;;;;477554;249;27772;-73
2021/04/10 05:55:06;;;;;;;2.50;2.10;;;8.80;99.90;;;;;;477560;249;27766;-74
2021/04/10 05:57:08;;;;;;;3.57;1.90;;;8.80;99.90;;;;;;477532;249;28011;-74
2021/04/10 05:59:09;;;;;;;2.40;2.10;;;8.90;99.90;;;;;;477477;249;28003;-74
2021/04/10 06:01:10;;;;;;;4.47;2.00;;;8.90;99.90;;;;;;477439;249;27913;-74
2021/04/10 06:03:11;;;;;;;4.50;2.33;;;8.90;99.90;;;;;;477414;249;28473;-73
2021/04/10 06:05:13;;;;;;;1.70;1.60;;;8.80;99.90;;;;;;477397;249;27920;-73
2021/04/10 06:07:14;;;;;;;3.57;2.00;;;8.80;99.90;;;;;;477385;249;28309;-73
2021/04/10 06:09:15;;;;;;;4.97;2.50;;;8.80;99.90;;;;;;477371;249;28478;-73
2021/04/10 06:11:16;;;;;;;2.87;2.10;;;8.70;99.90;;;;;;477407;249;28465;-74
2021/04/10 06:13:19;;;;;;;2.63;1.53;;;8.70;99.90;;;;;;477397;249;27910;-73
2021/04/10 06:15:19;;;;;;;2.40;2.20;;;8.80;99.90;;;;;;477276;249;27937;-74
2021/04/10 06:17:20;;;;;;;4.07;1.90;;;8.90;99.90;;;;;;477399;249;27902;-74
2021/04/10 06:19:21;;;;;;;2.60;1.50;;;8.80;99.90;;;;;;477391;249;27813;-73
2021/04/10 06:21:23;;;;;;;2.73;1.93;;;8.80;99.90;;;;;;477399;249;27749;-73
2021/04/10 06:23:24;;;;;;;6.80;1.90;;;8.70;99.90;;;;;;477399;249;28028;-73
2021/04/10 06:25:25;;;;;;;2.93;1.90;;;8.60;99.90;;;;;;477366;249;27903;-74
2021/04/10 06:27:26;;;;;;;2.20;1.70;;;8.70;99.90;;;;;;477363;249;27998;-74
2021/04/10 06:29:28;;;;;;;2.43;1.70;;;8.70;99.90;;;;;;477375;249;27934;-73
2021/04/10 06:31:29;;;;;;;2.70;2.03;;;8.70;99.90;;;;;;477371;249;28064;-73
2021/04/10 06:33:30;;;;;;;2.00;1.83;;;8.50;99.90;;;;;;477439;249;28189;-74
2021/04/10 06:35:31;;;;;;;8.17;2.03;;;8.60;99.90;;;;;;477401;249;27676;-73
2021/04/10 06:37:33;;;;;;;3.30;2.13;;;8.60;99.90;;;;;;483409;243;27925;-73
2021/04/10 06:39:34;;;;;;;2.33;2.07;;;8.60;99.90;;;;;;481063;245;27993;-74
2021/04/10 06:41:35;;;;;;;6.30;1.70;;;8.60;99.90;;;;;;480990;247;27642;-73
2021/04/10 06:43:37;;;;;;;2.80;1.83;;;8.70;99.90;;;;;;481023;247;27874;-73
2021/04/10 06:45:38;;;;;;;2.00;1.90;;;8.70;99.90;;;;;;481024;247;27887;-73
2021/04/10 06:47:39;;;;;;;1.73;1.63;;;8.70;99.90;;;;;;480961;247;28086;-73
2021/04/10 06:49:40;;;;;;;1.80;1.70;;;8.70;99.90;;;;;;481065;247;28471;-74
2021/04/10 06:51:42;;;;;;;3.70;1.93;;;8.70;99.90;;;;;;481059;247;27974;-73
2021/04/10 06:53:43;;;;;;;4.67;1.93;;;8.70;99.90;;;;;;480985;247;28403;-74
2021/04/10 06:55:44;;;;;;;2.80;1.90;;;8.80;99.90;;;;;;481042;247;28964;-73
2021/04/10 06:57:45;;;;;;;3.00;2.10;;;8.90;99.90;;;;;;481084;247;28183;-73
2021/04/10 06:59:47;;;;;;;2.93;2.50;;;9.10;99.90;;;;;;480996;247;27989;-73
2021/04/10 07:01:48;;;;;;;12.23;6.03;;;9.20;99.90;;;;;;483068;243;27942;-74
2021/04/10 07:03:49;;;;;;;5.77;3.57;;;9.20;99.90;;;;;;484449;245;28036;-74
2021/04/10 07:05:50;;;;;;;20.70;13.67;;;9.30;99.90;;;;;;484437;245;27779;-74
2021/04/10 07:07:52;;;;;;;3.03;2.73;;;9.40;99.90;;;;;;487898;243;27864;-76
2021/04/10 07:09:53;;;;;;;3.23;2.53;;;9.40;99.90;;;;;;488864;243;27664;-76
2021/04/10 07:11:55;;;;;;;6.13;2.50;;;9.40;99.90;;;;;;488750;243;28048;-76
2021/04/10 07:13:56;;;;;;;3.70;2.30;;;9.40;99.90;;;;;;488799;243;27983;-76
2021/04/10 07:15:57;;;;;;;2.20;2.00;;;9.40;99.90;;;;;;470582;252;27904;-76
2021/04/10 07:17:58;;;;;;;2.57;2.37;;;9.50;99.90;;;;;;479012;247;27788;-76
2021/04/10 07:19:59;;;;;;;4.40;2.23;;;9.60;99.90;;;;;;484378;243;28515;-77
2021/04/10 07:22:01;;;;;;;2.73;2.47;;;9.60;99.90;;;;;;492652;240;28778;-75
2021/04/10 07:24:02;;;;;;;2.60;2.30;;;9.60;99.90;;;;;;494232;240;28527;-76
2021/04/10 07:26:03;;;;;;;4.70;3.10;;;9.60;99.90;;;;;;494261;240;28446;-78
2021/04/10 07:28:04;;;;;;;3.80;1.83;;;9.80;99.90;;;;;;493623;240;28384;-76
2021/04/10 07:30:06;;;;;;;3.43;2.30;;;9.80;99.90;;;;;;488114;240;27889;-76
2021/04/10 07:32:07;;;;;;;5.30;4.00;;;9.90;99.90;;;;;;486748;243;27921;-78
2021/04/10 07:34:08;;;;;;;6.27;2.90;;;9.90;99.90;;;;;;488623;243;27873;-77
2021/04/10 07:36:09;;;;;;;3.07;2.40;;;9.90;99.90;;;;;;488734;243;27788;-77
2021/04/10 07:38:11;;;;;;;5.07;2.40;;;9.80;99.90;;;;;;488774;243;27880;-77
2021/04/10 07:40:12;;;;;;;4.03;2.13;;;9.70;99.90;;;;;;488830;240;27813;-75
2021/04/10 07:42:13;;;;;;;2.30;2.10;;;9.80;99.90;;;;;;488706;243;27905;-76
2021/04/10 07:44:14;;;;;;;2.87;2.53;;;9.60;99.90;;;;;;488770;243;27990;-77
2021/04/10 07:46:16;;;;;;;2.83;2.07;;;9.40;99.90;;;;;;488763;243;27993;-75
2021/04/10 07:48:18;;;;;;;3.67;3.10;;;9.30;99.90;;;;;;488765;243;27954;-77
2021/04/10 07:50:18;;;;;;;3.57;2.30;;;9.30;99.90;;;;;;470565;252;28048;-77
2021/04/10 07:52:19;;;;;;;2.60;2.40;;;9.40;99.90;;;;;;488780;243;27904;-77
2021/04/10 07:54:21;;;;;;;7.87;2.10;;;9.40;99.90;;;;;;487992;240;28540;-77
2021/04/10 07:56:22;;;;;;;5.40;2.90;;;9.40;99.90;;;;;;490474;240;28126;-77
2021/04/10 07:58:23;;;;;;;4.20;2.00;;;9.30;99.90;;;;;;489806;240;28380;-82
2021/04/10 08:00:24;;;;;;;2.80;1.90;;;9.30;99.90;;;;;;488173;240;28515;-76
2021/04/10 08:02:26;;;;;;;3.93;3.63;;;9.30;99.90;;;;;;489068;240;28575;-76
2021/04/10 08:04:27;;;;;;;2.40;2.20;;;9.40;99.90;;;;;;488639;243;27972;-76
2021/04/10 08:06:28;;;;;;;3.90;2.50;;;9.30;99.90;;;;;;487660;240;27821;-76
2021/04/10 08:08:29;;;;;;;3.40;2.00;;;9.30;99.90;;;;;;488941;243;27872;-77
2021/04/10 08:10:31;;;;;;;3.30;3.00;;;9.40;99.90;;;;;;488916;243;27849;-76
2021/04/10 08:12:32;;;;;;;2.23;2.00;;;9.40;99.90;;;;;;488246;240;27927;-76
2021/04/10 08:14:33;;;;;;;2.70;1.80;;;9.30;99.90;;;;;;489965;240;27925;-76
2021/04/10 08:16:34;;;;;;;3.20;1.97;;;9.20;99.90;;;;;;494450;240;27912;-76
2021/04/10 08:18:36;;;;;;;2.00;1.80;;;9.00;99.90;;;;;;494380;240;28004;-77
2021/04/10 08:20:37;;;;;;;5.63;2.53;;;8.90;99.90;;;;;;494446;240;27922;-75
2021/04/10 08:22:38;;;;;;;3.43;2.03;;;8.90;99.90;;;;;;494429;240;27871;-76
2021/04/10 08:24:39;;;;;;;6.00;2.60;;;8.90;99.90;;;;;;494317;240;28229;-76
2021/04/10 08:26:41;;;;;;;4.10;2.13;;;8.90;99.90;;;;;;494361;240;27985;-76
2021/04/10 08:28:42;;;;;;;2.67;2.10;;;9.00;99.90;;;;;;494388;240;28094;-76
2021/04/10 08:30:43;;;;;;;3.00;2.10;;;9.00;99.90;;;;;;494358;240;28426;-76
2021/04/10 08:32:44;;;;;;;4.30;2.57;;;9.00;99.90;;;;;;494379;240;28543;-76
2021/04/10 08:34:46;;;;;;;4.17;2.10;;;9.00;99.90;;;;;;494379;240;27885;-75
2021/04/10 08:36:47;;;;;;;3.50;2.17;;;9.00;99.90;;;;;;494339;240;27758;-75
2021/04/10 08:38:48;;;;;;;4.57;2.50;;;9.00;99.90;;;;;;494362;240;27748;-76
2021/04/10 08:40:49;;;;;;;4.93;2.70;;;9.10;99.90;;;;;;494430;240;27578;-76
2021/04/10 08:42:51;;;;;;;2.13;1.93;;;9.10;99.90;;;;;;494319;240;28006;-76
2021/04/10 08:44:52;;;;;;;4.80;2.07;;;9.20;99.90;;;;;;494399;240;27953;-76
2021/04/10 08:46:53;;;;;;;3.23;1.83;;;9.20;99.90;;;;;;494359;240;27883;-76
2021/04/10 08:48:58;;;;;;;2.87;2.50;;;9.20;99.90;;;;;;494308;240;27809;-75
2021/04/10 08:50:56;;;;;;;2.57;1.90;;;9.30;99.90;;;;;;494460;240;27782;-76
2021/04/10 08:52:57;;;;;;;4.63;2.70;;;9.30;99.90;;;;;;494723;240;27794;-77
2021/04/10 08:54:58;;;;;;;2.33;2.13;;;9.40;99.90;;;;;;494389;240;27961;-76
2021/04/10 08:56:59;;;;;;;2.40;2.20;;;9.40;99.90;;;;;;494349;240;27807;-75
2021/04/10 08:59:01;;;;;;;3.87;2.50;;;9.40;99.90;;;;;;494371;240;27975;-76
2021/04/10 09:01:02;;;;;;;2.37;1.83;;;9.40;99.90;;;;;;494322;240;27425;-77
2021/04/10 09:03:03;;;;;;;2.20;2.00;;;9.40;99.90;;;;;;494413;240;28425;-78
2021/04/10 09:05:04;;;;;;;2.43;2.23;;;9.50;99.90;;;;;;494375;240;28106;-76
2021/04/10 09:07:06;;;;;;;2.73;2.10;;;9.50;99.90;;;;;;494340;240;28220;-76
2021/04/10 09:09:07;;;;;;;3.90;2.03;;;9.60;99.90;;;;;;494352;240;28329;-76
2021/04/10 09:11:08;;;;;;;4.40;2.43;;;9.50;99.90;;;;;;494402;240;28570;-76
2021/04/10 09:13:09;;;;;;;3.07;2.50;;;9.50;99.90;;;;;;494428;240;27581;-76
2021/04/10 09:15:11;;;;;;;2.93;2.03;;;9.50;99.90;;;;;;494270;240;27709;-76
2021/04/10 09:17:12;;;;;;;4.73;2.30;;;9.50;99.90;;;;;;494391;240;27485;-76
2021/04/10 09:19:13;;;;;;;2.80;1.90;;;9.60;99.90;;;;;;494409;240;27939;-76
2021/04/10 09:21:14;;;;;;;2.30;2.10;;;9.60;99.90;;;;;;494463;240;27828;-76
2021/04/10 09:23:16;;;;;;;3.43;2.33;;;9.60;99.90;;;;;;494448;240;27850;-76
2021/04/10 09:25:17;;;;;;;4.50;1.90;;;9.70;99.90;;;;;;493102;240;27840;-76
2021/04/10 09:27:19;;;;;;;2.53;2.33;;;9.80;99.90;;;;;;488961;240;28272;-78
2021/04/10 09:29:19;;;;;;;2.87;1.70;;;9.70;99.90;;;;;;488851;243;27855;-76
2021/04/10 09:31:20;;;;;;;4.33;2.13;;;9.60;99.90;;;;;;470763;252;28134;-76
2021/04/10 09:33:22;;;;;;;3.13;1.70;;;9.60;99.90;;;;;;481495;243;27810;-76
2021/04/10 09:35:24;;;;;;;1.87;1.77;;;9.50;99.90;;;;;;480036;246;27953;-77
2021/04/10 09:37:24;;;;;;;2.63;2.07;;;9.60;99.90;;;;;;465949;250;28087;-77
2021/04/10 09:39:25;;;;;;;3.57;2.07;;;9.50;99.90;;;;;;475772;248;27803;-76
2021/04/10 09:41:27;;;;;;;4.10;2.00;;;9.50;99.90;;;;;;475726;250;28057;-76
2021/04/10 09:43:29;;;;;;;5.10;2.07;;;9.70;99.90;;;;;;475755;250;29036;-76
2021/04/10 09:45:30;;;;;;;2.40;1.83;;;9.70;99.90;;;;;;478273;245;28462;-76
2021/04/10 09:47:30;;;;;;;6.83;2.30;;;9.70;99.90;;;;;;477418;245;29295;-76
2021/04/10 09:49:32;;;;;;;2.27;1.90;;;9.70;99.90;;;;;;477858;245;28310;-76
2021/04/10 09:51:33;;;;;;;3.33;1.80;;;9.60;99.90;;;;;;485389;240;27995;-76
2021/04/10 09:53:34;;;;;;;3.63;1.80;;;9.60;99.90;;;;;;488303;240;28054;-77
2021/04/10 09:55:36;;;;;;;3.63;1.80;;;9.60;99.90;;;;;;489313;240;27946;-76
2021/04/10 09:57:37;;;;;;;4.37;2.57;;;9.70;99.90;;;;;;487738;240;27904;-76
2021/04/10 09:59:38;;;;;;;2.27;1.83;;;9.70;99.90;;;;;;492640;240;27840;-76
2021/04/10 10:01:39;;;;;;;4.87;2.13;;;9.70;99.90;;;;;;494462;240;27730;-76
2021/04/10 10:03:40;;;;;;;3.07;2.00;;;9.70;99.90;;;;;;494394;240;27533;-76
2021/04/10 10:05:42;;;;;;;2.37;1.83;;;9.80;99.90;;;;;;494356;240;27885;-76
2021/04/10 10:07:43;;;;;;;2.10;1.90;;;9.90;99.90;;;;;;494413;240;28056;-76
2021/04/10 10:09:44;;;;;;;2.70;1.83;;;9.90;99.90;;;;;;494353;240;28055;-76
2021/04/10 10:11:45;;;;;;;5.23;2.00;;;9.90;99.90;;;;;;489017;237;28025;-77
2021/04/10 10:13:47;;;;;;;2.60;1.77;;;9.90;99.90;;;;;;488794;243;27629;-77
2021/04/10 10:15:48;;;;;;;18.17;1.90;;;10.00;99.90;;;;;;490648;240;28031;-76
2021/04/10 10:17:49;;;;;;;3.90;1.70;;;9.90;99.90;;;;;;494361;240;28351;-77
2021/04/10 10:19:50;;;;;;;3.97;2.10;;;9.90;99.90;;;;;;494435;240;29113;-77
2021/04/10 10:21:52;;;;;;;7.60;2.13;;;9.90;99.90;;;;;;491629;240;28435;-76
2021/04/10 10:23:53;;;;;;;8.13;2.87;;;9.90;99.90;;;;;;494443;240;28416;-77
2021/04/10 10:25:54;;;;;;;6.60;2.00;;;10.00;99.90;;;;;;494412;240;28270;-77
2021/04/10 10:27:55;;;;;;;3.43;1.87;;;9.90;99.90;;;;;;494357;240;27888;-77
2021/04/10 10:29:57;;;;;;;3.50;2.03;;;9.80;99.90;;;;;;494432;240;27832;-76
2021/04/10 10:31:58;;;;;;;6.40;1.90;;;9.70;99.90;;;;;;491297;240;27908;-77
2021/04/10 10:33:59;;;;;;;5.87;2.27;;;9.70;99.90;;;;;;486574;243;28064;-76
2021/04/10 10:36:00;;;;;;;3.70;1.90;;;9.80;99.90;;;;;;486232;243;27928;-77
2021/04/10 10:38:02;;;;;;;5.10;3.10;;;9.70;99.90;;;;;;484382;245;28058;-76